Time;durP1;ratioP1;P1;durP2;ratioP2;P2;SDS_P1;SDS_P2;PMS_P1;PMS_P2;Temp;Humidity;BMP_temperature;BMP_pressure;BME280_temperature;BME280_humidity;BME280_pressure;Samples;Min_cycle;Max_cycle;Signal;HPM_P1;HPM_P2
2023/08/12 00:00:40;;;;;;;4.82;2.83;;;;;;;;;;4977453;28;20133;-64
2023/08/12 00:03:07;;;;;;;7.60;3.60;;;;;;;;;;4991129;28;20062;-64
2023/08/12 00:05:35;;;;;;;5.97;2.92;;;;;;;;;;4993061;28;20099;-64
2023/08/12 00:08:01;;;;;;;5.18;2.85;;;;;;;;;;4989707;28;20054;-64
2023/08/12 00:10:27;;;;;;;6.22;3.20;;;;;;;;;;4992028;28;20045;-64
2023/08/12 00:12:54;;;;;;;4.82;2.80;;;;;;;;;;4992720;28;20034;-64
2023/08/12 00:15:20;;;;;;;6.95;3.15;;;;;;;;;;4991215;28;20297;-64
2023/08/12 00:17:46;;;;;;;8.18;3.20;;;;;;;;;;4991967;28;20648;-64
2023/08/12 00:20:12;;;;;;;4.25;3.13;;;;;;;;;;4991092;28;20482;-64
2023/08/12 00:22:38;;;;;;;6.13;3.40;;;;;;;;;;4988721;28;20054;-64
2023/08/12 00:25:05;;;;;;;4.22;2.53;;;;;;;;;;4993132;28;20064;-64
2023/08/12 00:27:31;;;;;;;5.80;2.92;;;;;;;;;;4989817;28;20233;-64
2023/08/12 00:29:57;;;;;;;3.95;2.40;;;;;;;;;;4988321;28;20049;-63
2023/08/12 00:32:23;;;;;;;8.20;2.67;;;;;;;;;;4989560;28;20043;-64
2023/08/12 00:34:49;;;;;;;5.80;2.85;;;;;;;;;;4992222;28;20494;-64
2023/08/12 00:37:16;;;;;;;5.40;2.33;;;;;;;;;;4988859;28;20046;-64
2023/08/12 00:39:42;;;;;;;8.45;3.35;;;;;;;;;;4980101;28;20050;-64
2023/08/12 00:42:08;;;;;;;3.58;2.70;;;;;;;;;;4989638;28;20038;-64
2023/08/12 00:44:34;;;;;;;3.83;2.72;;;;;;;;;;4987383;28;20497;-64
2023/08/12 00:47:00;;;;;;;7.38;3.10;;;;;;;;;;4988998;28;20038;-64
2023/08/12 00:49:27;;;;;;;5.00;2.92;;;;;;;;;;4993918;28;20167;-64
2023/08/12 00:51:55;;;;;;;3.58;2.40;;;;;;;;;;4988896;28;20038;-65
2023/08/12 00:54:22;;;;;;;8.35;3.05;;;;;;;;;;4989132;28;20444;-64
2023/08/12 00:56:49;;;;;;;6.90;3.28;;;;;;;;;;4969817;28;20049;-64
2023/08/12 00:59:17;;;;;;;5.93;2.95;;;;;;;;;;4988857;28;20054;-64
2023/08/12 01:01:43;;;;;;;3.70;2.30;;;;;;;;;;4988549;28;20034;-63
2023/08/12 01:04:09;;;;;;;4.50;2.67;;;;;;;;;;4993797;28;20030;-64
2023/08/12 01:06:36;;;;;;;4.00;2.72;;;;;;;;;;4993040;28;20413;-64
2023/08/12 01:09:05;;;;;;;5.18;2.92;;;;;;;;;;4970682;28;20054;-64
2023/08/12 01:11:50;;;;;;;4.78;3.13;;;;;;;;;;4987081;28;20128;-64
2023/08/12 01:14:16;;;;;;;6.43;2.95;;;;;;;;;;4987928;28;20125;-64
2023/08/12 01:16:46;;;;;;;6.30;2.90;;;;;;;;;;4988958;28;20042;-64
2023/08/12 01:19:20;;;;;;;5.57;2.83;;;;;;;;;;4992696;28;20216;-65
2023/08/12 01:21:47;;;;;;;7.18;2.78;;;;;;;;;;4988188;28;20045;-64
2023/08/12 01:24:13;;;;;;;4.70;3.08;;;;;;;;;;4988728;28;20039;-64
2023/08/12 01:26:40;;;;;;;4.38;2.65;;;;;;;;;;4988221;28;20042;-64
2023/08/12 01:29:07;;;;;;;6.13;3.28;;;;;;;;;;4968257;28;20419;-64
2023/08/12 01:31:39;;;;;;;4.30;2.67;;;;;;;;;;4987968;28;20076;-64
2023/08/12 01:34:12;;;;;;;3.95;2.78;;;;;;;;;;4987816;28;20084;-64
2023/08/12 01:36:39;;;;;;;5.72;3.67;;;;;;;;;;4986440;28;20042;-64
2023/08/12 01:39:11;;;;;;;5.05;2.80;;;;;;;;;;4988200;28;20386;-64
2023/08/12 01:41:38;;;;;;;6.32;2.63;;;;;;;;;;4988132;28;20397;-64
2023/08/12 01:44:04;;;;;;;5.35;3.33;;;;;;;;;;4984900;28;20045;-65
2023/08/12 01:46:31;;;;;;;3.92;2.80;;;;;;;;;;4988437;28;20525;-64
2023/08/12 01:48:57;;;;;;;6.18;3.30;;;;;;;;;;4986458;28;20439;-64
2023/08/12 01:51:23;;;;;;;3.05;2.10;;;;;;;;;;4973895;28;20045;-64
2023/08/12 01:53:50;;;;;;;4.25;2.92;;;;;;;;;;4986685;28;20050;-64
2023/08/12 01:56:16;;;;;;;4.15;2.95;;;;;;;;;;4993973;28;20120;-64
2023/08/12 01:58:42;;;;;;;4.03;3.15;;;;;;;;;;4986080;28;20062;-63
2023/08/12 02:01:09;;;;;;;3.72;2.92;;;;;;;;;;4968382;28;20470;-64
2023/08/12 02:03:35;;;;;;;6.60;3.35;;;;;;;;;;4987641;28;20046;-64
2023/08/12 02:06:01;;;;;;;4.97;3.28;;;;;;;;;;4987995;28;20082;-64
2023/08/12 02:08:27;;;;;;;6.72;3.30;;;;;;;;;;4985486;28;20495;-64
2023/08/12 02:10:53;;;;;;;5.63;3.30;;;;;;;;;;4987424;28;20050;-63
2023/08/12 02:13:19;;;;;;;7.32;3.20;;;;;;;;;;4985583;28;20049;-64
2023/08/12 02:15:46;;;;;;;4.97;3.08;;;;;;;;;;4975987;28;20500;-64
2023/08/12 02:18:12;;;;;;;5.63;2.88;;;;;;;;;;4971935;28;20041;-64
2023/08/12 02:20:38;;;;;;;5.45;2.88;;;;;;;;;;4989343;28;20042;-64
2023/08/12 02:23:04;;;;;;;4.32;2.38;;;;;;;;;;4986795;28;20050;-65
2023/08/12 02:25:31;;;;;;;5.15;3.03;;;;;;;;;;4987128;28;20038;-64
2023/08/12 02:27:57;;;;;;;5.03;3.50;;;;;;;;;;4986322;28;20537;-65
2023/08/12 02:30:24;;;;;;;5.38;3.25;;;;;;;;;;4991602;28;20081;-64
2023/08/12 02:32:50;;;;;;;4.65;2.92;;;;;;;;;;4969435;28;20048;-64
2023/08/12 02:35:17;;;;;;;4.60;3.47;;;;;;;;;;4976570;28;20042;-64
2023/08/12 02:37:43;;;;;;;5.50;3.00;;;;;;;;;;4993462;28;20045;-64
2023/08/12 02:40:10;;;;;;;4.05;3.30;;;;;;;;;;4993879;28;20051;-63
2023/08/12 02:42:36;;;;;;;5.88;3.47;;;;;;;;;;4976825;28;20501;-64
2023/08/12 02:45:03;;;;;;;6.68;3.50;;;;;;;;;;4971754;28;20538;-64
2023/08/12 02:47:29;;;;;;;6.55;3.45;;;;;;;;;;4988333;28;20109;-63
2023/08/12 02:49:55;;;;;;;5.20;3.40;;;;;;;;;;4994260;28;20069;-64
2023/08/12 02:52:21;;;;;;;6.82;3.58;;;;;;;;;;4985648;28;20145;-64
2023/08/12 02:54:47;;;;;;;6.18;3.58;;;;;;;;;;4985230;28;20316;-64
2023/08/12 02:57:14;;;;;;;5.07;3.03;;;;;;;;;;4969650;28;20375;-64
2023/08/12 02:59:43;;;;;;;4.68;3.25;;;;;;;;;;4983917;28;20038;-63
2023/08/12 03:02:09;;;;;;;5.47;3.50;;;;;;;;;;4986316;28;20042;-64
2023/08/12 03:04:36;;;;;;;11.48;3.83;;;;;;;;;;4986080;28;20104;-64
2023/08/12 03:07:02;;;;;;;4.70;3.35;;;;;;;;;;4986714;28;20050;-63
2023/08/12 03:09:28;;;;;;;10.25;3.15;;;;;;;;;;4989957;28;20046;-64
2023/08/12 03:11:55;;;;;;;7.93;3.80;;;;;;;;;;4989902;28;20057;-64
2023/08/12 03:14:21;;;;;;;8.52;4.07;;;;;;;;;;4989864;28;20034;-64
2023/08/12 03:16:47;;;;;;;6.22;3.83;;;;;;;;;;4991805;28;20069;-63
2023/08/12 03:19:13;;;;;;;9.30;3.30;;;;;;;;;;4991108;28;20119;-65
2023/08/12 03:21:39;;;;;;;6.95;3.60;;;;;;;;;;4990387;28;20061;-65
2023/08/12 03:24:06;;;;;;;5.63;3.50;;;;;;;;;;4989833;28;20046;-64
2023/08/12 03:26:32;;;;;;;6.00;3.10;;;;;;;;;;4990033;28;20557;-64
2023/08/12 03:28:58;;;;;;;5.82;3.72;;;;;;;;;;4986873;28;20046;-64
2023/08/12 03:31:24;;;;;;;8.15;3.97;;;;;;;;;;4993935;28;20394;-64
2023/08/12 03:33:50;;;;;;;8.38;4.22;;;;;;;;;;4992862;28;20286;-64
2023/08/12 03:36:16;;;;;;;6.43;3.42;;;;;;;;;;4972933;28;20485;-65
2023/08/12 03:38:49;;;;;;;7.32;4.05;;;;;;;;;;4978231;28;20054;-64
2023/08/12 03:41:15;;;;;;;4.88;3.08;;;;;;;;;;4983771;28;20042;-63
2023/08/12 03:43:43;;;;;;;5.32;3.97;;;;;;;;;;4990193;28;20092;-64
2023/08/12 03:46:09;;;;;;;8.70;4.47;;;;;;;;;;4993575;28;20468;-64
2023/08/12 03:48:35;;;;;;;8.25;4.03;;;;;;;;;;4994595;28;20048;-64
2023/08/12 03:51:01;;;;;;;6.55;3.70;;;;;;;;;;4989820;28;20043;-64
2023/08/12 03:53:28;;;;;;;5.10;3.50;;;;;;;;;;4990483;28;20077;-64
2023/08/12 03:55:54;;;;;;;5.78;3.88;;;;;;;;;;4995965;28;20159;-63
2023/08/12 03:58:20;;;;;;;8.00;4.88;;;;;;;;;;4990316;28;20350;-65
2023/08/12 04:00:46;;;;;;;10.25;4.78;;;;;;;;;;4993673;28;20049;-64
2023/08/12 04:03:12;;;;;;;6.25;4.35;;;;;;;;;;4993559;28;20046;-63
2023/08/12 04:05:38;;;;;;;7.03;4.13;;;;;;;;;;4994089;28;20042;-64
2023/08/12 04:08:05;;;;;;;7.63;4.50;;;;;;;;;;4997661;28;20045;-64
2023/08/12 04:10:31;;;;;;;5.85;4.20;;;;;;;;;;4995858;28;20096;-63
2023/08/12 04:12:57;;;;;;;7.82;4.18;;;;;;;;;;4993318;28;20039;-64
2023/08/12 04:15:23;;;;;;;6.38;4.28;;;;;;;;;;4997122;28;20397;-64
2023/08/12 04:17:49;;;;;;;5.85;4.32;;;;;;;;;;4993191;28;20869;-64
2023/08/12 04:20:15;;;;;;;5.38;4.60;;;;;;;;;;4991717;28;20449;-64
2023/08/12 04:22:41;;;;;;;15.20;4.47;;;;;;;;;;4998126;28;20039;-64
2023/08/12 04:25:07;;;;;;;6.43;4.30;;;;;;;;;;4993005;28;20092;-65
2023/08/12 04:27:34;;;;;;;6.28;4.28;;;;;;;;;;4992867;28;20030;-63
2023/08/12 04:30:00;;;;;;;5.15;3.70;;;;;;;;;;4984986;28;20107;-64
2023/08/12 04:32:26;;;;;;;5.28;4.00;;;;;;;;;;4995454;28;20035;-64
2023/08/12 04:34:52;;;;;;;6.07;4.45;;;;;;;;;;4995552;28;20386;-64
2023/08/12 04:37:18;;;;;;;9.10;4.05;;;;;;;;;;4975755;28;20038;-64
2023/08/12 04:39:45;;;;;;;5.45;4.07;;;;;;;;;;4992429;28;20429;-64
2023/08/12 04:42:11;;;;;;;6.38;4.93;;;;;;;;;;4991618;28;20536;-64
2023/08/12 04:44:37;;;;;;;8.10;4.63;;;;;;;;;;4993085;28;20338;-63
2023/08/12 04:47:03;;;;;;;5.70;3.70;;;;;;;;;;4975363;28;20053;-64
2023/08/12 04:49:30;;;;;;;6.00;4.25;;;;;;;;;;4994322;28;20087;-64
2023/08/12 04:51:56;;;;;;;7.65;4.20;;;;;;;;;;4988955;28;20296;-65
2023/08/12 04:54:22;;;;;;;7.28;4.32;;;;;;;;;;4992267;28;20077;-64
2023/08/12 04:56:48;;;;;;;7.13;4.45;;;;;;;;;;4988420;28;20460;-64
2023/08/12 04:59:14;;;;;;;9.15;4.13;;;;;;;;;;4988668;28;20057;-64
2023/08/12 05:01:40;;;;;;;5.95;3.95;;;;;;;;;;4988845;28;20497;-64
2023/08/12 05:04:06;;;;;;;5.97;4.32;;;;;;;;;;4988017;28;20057;-65
2023/08/12 05:06:32;;;;;;;8.80;4.88;;;;;;;;;;4988514;28;20058;-64
2023/08/12 05:08:59;;;;;;;6.13;3.47;;;;;;;;;;4938509;28;20132;-64
2023/08/12 05:11:25;;;;;;;5.57;3.55;;;;;;;;;;4988684;28;20588;-64
2023/08/12 05:13:51;;;;;;;5.90;3.75;;;;;;;;;;4970877;28;20057;-64
2023/08/12 05:16:17;;;;;;;6.75;3.80;;;;;;;;;;4986292;28;20042;-64
2023/08/12 05:18:43;;;;;;;6.07;3.55;;;;;;;;;;4988581;28;20061;-63
2023/08/12 05:21:09;;;;;;;5.53;3.70;;;;;;;;;;4986814;28;20524;-64
2023/08/12 05:23:35;;;;;;;5.70;4.50;;;;;;;;;;4994107;28;20398;-64
2023/08/12 05:26:01;;;;;;;6.40;4.22;;;;;;;;;;4988129;28;20235;-64
2023/08/12 05:28:27;;;;;;;7.10;3.42;;;;;;;;;;4989006;28;20581;-63
2023/08/12 05:30:55;;;;;;;5.28;3.17;;;;;;;;;;4987309;28;20042;-64
2023/08/12 05:33:21;;;;;;;4.72;3.35;;;;;;;;;;4971050;28;20166;-64
2023/08/12 05:35:48;;;;;;;6.75;3.53;;;;;;;;;;4987395;28;20042;-63
2023/08/12 05:38:14;;;;;;;5.80;3.65;;;;;;;;;;4998467;28;20049;-64
2023/08/12 05:40:40;;;;;;;9.25;3.67;;;;;;;;;;4986741;28;20092;-65
2023/08/12 05:43:06;;;;;;;10.02;4.57;;;;;;;;;;4987972;28;20058;-65
2023/08/12 05:45:32;;;;;;;7.47;3.85;;;;;;;;;;4986622;28;20113;-65
2023/08/12 05:47:59;;;;;;;6.70;4.15;;;;;;;;;;4992990;28;20322;-65
2023/08/12 05:50:26;;;;;;;7.68;4.45;;;;;;;;;;4972383;28;20574;-65
2023/08/12 05:52:52;;;;;;;5.32;3.50;;;;;;;;;;4987974;28;20046;-64
2023/08/12 05:55:18;;;;;;;7.45;4.30;;;;;;;;;;4984163;28;20579;-64
2023/08/12 05:57:44;;;;;;;7.03;4.43;;;;;;;;;;4987907;28;20097;-64
2023/08/12 06:00:10;;;;;;;9.10;4.63;;;;;;;;;;4987112;28;20075;-65
2023/08/12 06:02:37;;;;;;;7.15;3.40;;;;;;;;;;4985504;28;20639;-65
2023/08/12 06:05:03;;;;;;;6.05;3.30;;;;;;;;;;4987925;28;20186;-65
2023/08/12 06:07:29;;;;;;;9.10;4.13;;;;;;;;;;4987335;28;20506;-64
2023/08/12 06:09:55;;;;;;;5.85;3.75;;;;;;;;;;4986683;28;20043;-65
2023/08/12 06:12:21;;;;;;;5.22;3.60;;;;;;;;;;4986713;28;20038;-65
2023/08/12 06:14:48;;;;;;;6.78;3.72;;;;;;;;;;4987061;28;20045;-65
2023/08/12 06:17:14;;;;;;;4.82;3.40;;;;;;;;;;4969664;28;20050;-64
2023/08/12 06:19:40;;;;;;;6.93;4.32;;;;;;;;;;4975644;28;20066;-64
2023/08/12 06:22:06;;;;;;;10.65;4.63;;;;;;;;;;4987495;28;20045;-67
2023/08/12 06:24:32;;;;;;;12.15;4.53;;;;;;;;;;4970523;28;20073;-65
2023/08/12 06:26:58;;;;;;;13.23;4.15;;;;;;;;;;4987523;28;20073;-64
2023/08/12 06:29:24;;;;;;;10.20;4.82;;;;;;;;;;4983511;28;20060;-64
2023/08/12 06:31:51;;;;;;;6.18;4.50;;;;;;;;;;4996035;28;20046;-64
2023/08/12 06:34:17;;;;;;;8.80;5.07;;;;;;;;;;4990121;28;20359;-63
2023/08/12 06:36:44;;;;;;;5.60;4.35;;;;;;;;;;4994138;28;20102;-65
2023/08/12 06:39:10;;;;;;;9.23;5.32;;;;;;;;;;4993035;28;20402;-65
2023/08/12 06:41:36;;;;;;;9.85;5.38;;;;;;;;;;4992828;28;20092;-64
2023/08/12 06:44:04;;;;;;;10.75;6.22;;;;;;;;;;4974254;28;20619;-64
2023/08/12 06:46:30;;;;;;;6.75;5.15;;;;;;;;;;4990692;28;20108;-65
2023/08/12 06:48:57;;;;;;;10.10;5.78;;;;;;;;;;4975244;28;20045;-64
2023/08/12 06:51:23;;;;;;;7.18;5.10;;;;;;;;;;4975745;28;20069;-64
2023/08/12 06:53:49;;;;;;;7.93;4.90;;;;;;;;;;4990743;28;20114;-65
2023/08/12 06:56:15;;;;;;;10.75;5.90;;;;;;;;;;4990675;28;20052;-65
2023/08/12 06:58:41;;;;;;;10.20;5.88;;;;;;;;;;4986863;28;20197;-65
2023/08/12 07:01:07;;;;;;;6.72;4.93;;;;;;;;;;4993280;28;20153;-65
2023/08/12 07:03:33;;;;;;;7.90;5.55;;;;;;;;;;4989309;28;20508;-65
2023/08/12 07:06:00;;;;;;;10.10;5.82;;;;;;;;;;4991646;28;20076;-64
2023/08/12 07:08:27;;;;;;;10.90;6.07;;;;;;;;;;4989751;28;20034;-65
2023/08/12 07:10:53;;;;;;;11.77;6.30;;;;;;;;;;4992456;28;20078;-65
2023/08/12 07:13:19;;;;;;;10.30;6.70;;;;;;;;;;4986853;28;20101;-65
2023/08/12 07:15:45;;;;;;;10.52;7.00;;;;;;;;;;4989684;28;20073;-64
2023/08/12 07:18:11;;;;;;;10.68;6.45;;;;;;;;;;4987499;28;20132;-65
2023/08/12 07:20:38;;;;;;;14.13;6.47;;;;;;;;;;4969922;28;20119;-64
2023/08/12 07:23:04;;;;;;;12.13;6.47;;;;;;;;;;4973726;28;20089;-65
2023/08/12 07:25:30;;;;;;;9.25;6.20;;;;;;;;;;4985620;28;20458;-64
2023/08/12 07:27:56;;;;;;;10.98;6.65;;;;;;;;;;4988507;28;20045;-65
2023/08/12 07:30:23;;;;;;;10.55;7.10;;;;;;;;;;4970404;28;20501;-65
2023/08/12 07:32:49;;;;;;;11.85;6.80;;;;;;;;;;4990897;28;20045;-65
2023/08/12 07:35:15;;;;;;;9.25;5.50;;;;;;;;;;4992715;28;20441;-65
2023/08/12 07:37:41;;;;;;;9.38;5.70;;;;;;;;;;4986415;28;20510;-64
2023/08/12 07:40:08;;;;;;;11.10;5.72;;;;;;;;;;4986354;28;20521;-65
2023/08/12 07:42:34;;;;;;;10.45;5.10;;;;;;;;;;4989163;28;20047;-65
2023/08/12 07:45:01;;;;;;;10.15;5.78;;;;;;;;;;4952149;28;20226;-65
2023/08/12 07:47:27;;;;;;;8.45;5.53;;;;;;;;;;4987014;28;20454;-65
2023/08/12 07:49:53;;;;;;;7.68;5.82;;;;;;;;;;4991273;28;20077;-65
2023/08/12 07:52:19;;;;;;;10.82;6.38;;;;;;;;;;4988635;28;20461;-65
2023/08/12 07:54:45;;;;;;;9.98;6.18;;;;;;;;;;4970592;28;20375;-65
2023/08/12 07:57:11;;;;;;;9.57;6.03;;;;;;;;;;4989025;28;20038;-64
2023/08/12 07:59:37;;;;;;;10.35;6.88;;;;;;;;;;4988795;28;20519;-64
2023/08/12 08:02:03;;;;;;;10.50;6.80;;;;;;;;;;4990654;28;20039;-64
2023/08/12 08:04:30;;;;;;;9.38;6.95;;;;;;;;;;4968249;28;20379;-64
2023/08/12 08:06:59;;;;;;;11.82;6.88;;;;;;;;;;4989629;28;20038;-64
2023/08/12 08:09:26;;;;;;;8.23;6.78;;;;;;;;;;4971668;28;20096;-64
2023/08/12 08:11:52;;;;;;;11.73;7.22;;;;;;;;;;4995918;28;20042;-64
2023/08/12 08:14:18;;;;;;;9.93;5.43;;;;;;;;;;4973175;28;20374;-64
2023/08/12 08:16:44;;;;;;;9.55;7.30;;;;;;;;;;4989677;28;20042;-64
2023/08/12 08:19:10;;;;;;;11.18;7.45;;;;;;;;;;4990562;28;20504;-64
2023/08/12 08:21:36;;;;;;;9.93;6.75;;;;;;;;;;4990488;28;20398;-64
2023/08/12 08:24:03;;;;;;;11.05;6.78;;;;;;;;;;4973006;28;20050;-64
2023/08/12 08:26:29;;;;;;;11.45;8.20;;;;;;;;;;4987649;28;20450;-64
2023/08/12 08:28:55;;;;;;;8.40;6.28;;;;;;;;;;4984087;28;20042;-65
2023/08/12 08:31:21;;;;;;;10.95;7.30;;;;;;;;;;4989724;28;20234;-65
2023/08/12 08:33:48;;;;;;;10.60;7.10;;;;;;;;;;4993704;28;20038;-65
2023/08/12 08:36:14;;;;;;;8.77;5.28;;;;;;;;;;4994416;28;20081;-65
2023/08/12 08:38:41;;;;;;;8.95;6.38;;;;;;;;;;4988871;28;20034;-65
2023/08/12 08:41:10;;;;;;;9.35;6.13;;;;;;;;;;4984173;28;20034;-65
2023/08/12 08:43:37;;;;;;;9.57;6.22;;;;;;;;;;4977973;28;20514;-63
2023/08/12 08:46:03;;;;;;;8.75;5.78;;;;;;;;;;4971232;28;20398;-64
2023/08/12 08:48:29;;;;;;;9.38;6.53;;;;;;;;;;4996052;28;20041;-63
2023/08/12 08:50:56;;;;;;;10.85;6.50;;;;;;;;;;4998186;28;20042;-64
2023/08/12 08:53:22;;;;;;;9.30;6.25;;;;;;;;;;4995412;28;20481;-64
2023/08/12 08:55:48;;;;;;;9.15;6.32;;;;;;;;;;4991708;28;20525;-63
2023/08/12 08:58:14;;;;;;;8.35;6.35;;;;;;;;;;4990312;28;20040;-64
2023/08/12 09:00:41;;;;;;;10.77;5.88;;;;;;;;;;4959568;28;20081;-62
2023/08/12 09:03:08;;;;;;;13.73;8.07;;;;;;;;;;4989765;28;20046;-64
2023/08/12 09:05:34;;;;;;;9.43;6.78;;;;;;;;;;4996044;28;20117;-63
2023/08/12 09:08:01;;;;;;;11.25;6.63;;;;;;;;;;4992593;28;20534;-63
2023/08/12 09:10:27;;;;;;;13.75;7.70;;;;;;;;;;4994469;28;20521;-63
2023/08/12 09:12:57;;;;;;;10.40;5.80;;;;;;;;;;4997961;28;20038;-63
2023/08/12 09:15:23;;;;;;;12.57;7.93;;;;;;;;;;4977631;28;20121;-63
2023/08/12 09:17:50;;;;;;;11.73;8.18;;;;;;;;;;4988424;28;20042;-63
2023/08/12 09:20:16;;;;;;;14.68;8.38;;;;;;;;;;4987458;28;20052;-63
2023/08/12 09:22:43;;;;;;;10.10;7.32;;;;;;;;;;4988326;28;20045;-63
2023/08/12 09:25:12;;;;;;;11.27;7.75;;;;;;;;;;4985074;28;20049;-64
2023/08/12 09:27:39;;;;;;;13.00;9.13;;;;;;;;;;4988786;28;20042;-64
2023/08/12 09:30:05;;;;;;;9.95;7.97;;;;;;;;;;4981154;28;20125;-64
2023/08/12 09:32:38;;;;;;;9.00;6.82;;;;;;;;;;4994747;28;20061;-64
2023/08/12 09:35:06;;;;;;;12.07;9.13;;;;;;;;;;4970705;28;20046;-65
2023/08/12 09:37:32;;;;;;;12.98;8.32;;;;;;;;;;4994002;28;20038;-64
2023/08/12 09:39:59;;;;;;;11.52;9.40;;;;;;;;;;4987522;28;20112;-64
2023/08/12 09:42:25;;;;;;;9.50;8.52;;;;;;;;;;4991539;28;20053;-64
2023/08/12 09:44:51;;;;;;;12.65;7.85;;;;;;;;;;4996602;28;20058;-64
2023/08/12 09:47:18;;;;;;;9.65;7.15;;;;;;;;;;4987640;28;20038;-64
2023/08/12 09:49:44;;;;;;;10.55;7.50;;;;;;;;;;4992679;28;20491;-63
2023/08/12 09:52:13;;;;;;;9.65;8.10;;;;;;;;;;4993802;28;20038;-64
2023/08/12 09:54:39;;;;;;;10.57;7.55;;;;;;;;;;4975323;28;20038;-64
2023/08/12 09:57:08;;;;;;;9.80;7.45;;;;;;;;;;4992785;28;20397;-64
2023/08/12 09:59:35;;;;;;;9.27;7.47;;;;;;;;;;4985573;28;20038;-64
2023/08/12 10:02:06;;;;;;;9.90;7.82;;;;;;;;;;4991793;28;20137;-64
2023/08/12 10:04:42;;;;;;;8.43;6.63;;;;;;;;;;4984813;28;20050;-65
2023/08/12 10:07:10;;;;;;;8.55;7.43;;;;;;;;;;4978798;28;20535;-64
2023/08/12 10:09:37;;;;;;;10.63;8.10;;;;;;;;;;4990681;28;20351;-64
2023/08/12 10:12:04;;;;;;;11.75;7.82;;;;;;;;;;4987531;28;20046;-65
2023/08/12 10:14:30;;;;;;;11.90;7.05;;;;;;;;;;4969221;28;20544;-64
2023/08/12 10:16:57;;;;;;;9.65;8.65;;;;;;;;;;4989188;28;20042;-65
2023/08/12 10:19:25;;;;;;;10.30;7.60;;;;;;;;;;4996277;28;20421;-64
2023/08/12 10:21:54;;;;;;;10.75;7.03;;;;;;;;;;4989401;28;20153;-65
2023/08/12 10:24:20;;;;;;;8.02;5.93;;;;;;;;;;4974626;28;20046;-64
2023/08/12 10:26:46;;;;;;;10.35;6.15;;;;;;;;;;4987115;28;20243;-64
2023/08/12 10:29:13;;;;;;;7.53;4.10;;;;;;;;;;4980665;28;20104;-65
2023/08/12 10:31:40;;;;;;;7.97;4.50;;;;;;;;;;4971269;28;20168;-65
2023/08/12 10:34:06;;;;;;;11.32;4.05;;;;;;;;;;4987162;28;20034;-65
2023/08/12 10:36:34;;;;;;;6.75;3.60;;;;;;;;;;4992970;28;20537;-65
2023/08/12 10:39:00;;;;;;;4.93;2.80;;;;;;;;;;4987026;28;20042;-65
2023/08/12 10:41:27;;;;;;;8.57;4.00;;;;;;;;;;4992852;28;20129;-63
2023/08/12 10:43:54;;;;;;;5.28;3.00;;;;;;;;;;4986816;28;20082;-64
2023/08/12 10:46:33;;;;;;;5.75;2.33;;;;;;;;;;4985196;28;20185;-64
2023/08/12 10:49:01;;;;;;;4.45;2.95;;;;;;;;;;4992329;28;20553;-64
2023/08/12 10:51:46;;;;;;;4.50;2.40;;;;;;;;;;4991996;28;20042;-64
2023/08/12 10:54:33;;;;;;;5.38;2.45;;;;;;;;;;4987202;28;20506;-64
2023/08/12 10:57:05;;;;;;;4.65;2.47;;;;;;;;;;4970046;28;20074;-65
2023/08/12 10:59:47;;;;;;;4.93;2.60;;;;;;;;;;4986033;28;20524;-64
2023/08/12 11:02:23;;;;;;;3.85;2.25;;;;;;;;;;4985447;28;20057;-63
2023/08/12 11:05:01;;;;;;;4.70;2.67;;;;;;;;;;4987291;28;20049;-64
2023/08/12 11:07:39;;;;;;;4.38;2.20;;;;;;;;;;4986383;28;20125;-63
2023/08/12 11:10:10;;;;;;;4.60;2.33;;;;;;;;;;4986285;28;20182;-63
2023/08/12 11:12:36;;;;;;;6.00;2.30;;;;;;;;;;4986773;28;20144;-64
2023/08/12 11:15:04;;;;;;;3.70;2.10;;;;;;;;;;4986713;28;20092;-64
2023/08/12 11:17:32;;;;;;;3.90;2.17;;;;;;;;;;4986177;28;20046;-64
2023/08/12 11:20:00;;;;;;;5.75;2.42;;;;;;;;;;4986867;28;20050;-64
2023/08/12 11:22:26;;;;;;;4.32;2.13;;;;;;;;;;4986217;28;20113;-64
2023/08/12 11:24:53;;;;;;;4.88;2.20;;;;;;;;;;4985940;28;20132;-66
2023/08/12 11:27:19;;;;;;;7.03;2.53;;;;;;;;;;4968887;28;20548;-64
2023/08/12 11:29:45;;;;;;;4.55;2.22;;;;;;;;;;4987234;28;20045;-64
2023/08/12 11:32:11;;;;;;;5.07;2.78;;;;;;;;;;4970821;28;20085;-66
2023/08/12 11:34:38;;;;;;;5.45;1.88;;;;;;;;;;4990852;28;20042;-65
2023/08/12 11:37:04;;;;;;;10.05;3.13;;;;;;;;;;4990416;28;20169;-65
2023/08/12 11:39:30;;;;;;;5.28;2.63;;;;;;;;;;4989053;28;20039;-64
2023/08/12 11:41:57;;;;;;;5.00;1.77;;;;;;;;;;4971686;28;20038;-64
2023/08/12 11:44:23;;;;;;;5.20;2.15;;;;;;;;;;4972602;28;20042;-63
2023/08/12 11:46:50;;;;;;;4.35;2.13;;;;;;;;;;4995445;28;20096;-63
2023/08/12 11:49:16;;;;;;;5.90;2.30;;;;;;;;;;4990602;28;20042;-63
2023/08/12 11:51:43;;;;;;;5.03;2.20;;;;;;;;;;4989883;28;20069;-64
2023/08/12 11:54:11;;;;;;;4.15;2.22;;;;;;;;;;4971688;28;20716;-63
2023/08/12 11:56:37;;;;;;;3.22;1.90;;;;;;;;;;4987479;28;20046;-64
2023/08/12 11:59:05;;;;;;;7.22;2.75;;;;;;;;;;4989666;28;20042;-63
2023/08/12 12:01:31;;;;;;;6.03;2.50;;;;;;;;;;4989367;28;20068;-63
2023/08/12 12:04:01;;;;;;;6.25;1.88;;;;;;;;;;4988630;28;20089;-64
2023/08/12 12:06:31;;;;;;;3.63;2.22;;;;;;;;;;4988241;28;20414;-63
2023/08/12 12:09:00;;;;;;;4.05;2.08;;;;;;;;;;4989506;28;20616;-64
2023/08/12 12:11:26;;;;;;;4.03;2.08;;;;;;;;;;4989073;28;20157;-64
2023/08/12 12:13:52;;;;;;;4.30;2.40;;;;;;;;;;4987106;28;20046;-64
2023/08/12 12:16:18;;;;;;;5.55;2.25;;;;;;;;;;4986459;28;20046;-63
2023/08/12 12:18:45;;;;;;;4.53;2.20;;;;;;;;;;4970369;28;20043;-63
2023/08/12 12:21:11;;;;;;;3.78;2.13;;;;;;;;;;4987279;28;20038;-64
2023/08/12 12:23:37;;;;;;;5.72;1.95;;;;;;;;;;4988912;28;20514;-64
2023/08/12 12:26:05;;;;;;;7.40;2.95;;;;;;;;;;4988479;28;20122;-63
2023/08/12 12:28:31;;;;;;;4.75;2.60;;;;;;;;;;4982908;28;20038;-64
2023/08/12 12:30:57;;;;;;;4.32;2.10;;;;;;;;;;4969309;28;20457;-64
2023/08/12 12:33:23;;;;;;;6.30;2.72;;;;;;;;;;4975705;28;20423;-63
2023/08/12 12:35:50;;;;;;;5.07;2.65;;;;;;;;;;4995157;28;20125;-63
2023/08/12 12:38:17;;;;;;;5.97;2.60;;;;;;;;;;4988426;28;20199;-63
2023/08/12 12:40:43;;;;;;;6.65;2.95;;;;;;;;;;4988865;28;20354;-63
2023/08/12 12:43:09;;;;;;;7.35;2.60;;;;;;;;;;5002070;28;20053;-63
2023/08/12 12:45:36;;;;;;;5.30;2.60;;;;;;;;;;4994364;28;20270;-63
2023/08/12 12:48:02;;;;;;;12.45;3.10;;;;;;;;;;4992015;28;20041;-63
2023/08/12 12:50:28;;;;;;;4.43;2.58;;;;;;;;;;4979951;28;20484;-63
2023/08/12 12:52:54;;;;;;;15.63;3.35;;;;;;;;;;4995349;28;20344;-63
2023/08/12 12:55:20;;;;;;;4.95;3.15;;;;;;;;;;4978372;28;20410;-64
2023/08/12 12:57:46;;;;;;;7.95;2.67;;;;;;;;;;4970458;28;20582;-63
2023/08/12 13:00:13;;;;;;;4.80;3.25;;;;;;;;;;4971176;28;20057;-64
2023/08/12 13:02:39;;;;;;;4.35;2.50;;;;;;;;;;4988222;28;20043;-64
2023/08/12 13:05:05;;;;;;;5.10;2.38;;;;;;;;;;4986417;28;20414;-63
2023/08/12 13:07:31;;;;;;;6.07;2.67;;;;;;;;;;4985876;28;20046;-64
2023/08/12 13:09:57;;;;;;;5.80;2.40;;;;;;;;;;4988679;28;20454;-64
2023/08/12 13:12:24;;;;;;;4.28;2.30;;;;;;;;;;4993802;28;20078;-63
2023/08/12 13:14:50;;;;;;;4.47;2.17;;;;;;;;;;4989275;28;20371;-64
2023/08/12 13:17:22;;;;;;;4.75;1.92;;;;;;;;;;4971525;28;20038;-63
2023/08/12 13:19:48;;;;;;;7.70;2.58;;;;;;;;;;4988136;28;20125;-63
2023/08/12 13:22:14;;;;;;;5.32;2.92;;;;;;;;;;4987046;28;20093;-63
2023/08/12 13:24:40;;;;;;;6.03;2.20;;;;;;;;;;4988108;28;20208;-63
2023/08/12 13:27:07;;;;;;;7.80;2.47;;;;;;;;;;4983102;28;20053;-63
2023/08/12 13:29:33;;;;;;;8.02;2.70;;;;;;;;;;4984239;28;20043;-64
2023/08/12 13:32:00;;;;;;;7.13;2.72;;;;;;;;;;4994386;28;20042;-63
2023/08/12 13:34:26;;;;;;;6.88;2.40;;;;;;;;;;4971733;28;20101;-63
2023/08/12 13:36:52;;;;;;;4.82;2.30;;;;;;;;;;4992873;28;20423;-63
2023/08/12 13:39:24;;;;;;;5.72;2.58;;;;;;;;;;4995707;28;20061;-63
2023/08/12 13:41:50;;;;;;;5.38;2.58;;;;;;;;;;4998275;28;20446;-63
2023/08/12 13:44:16;;;;;;;6.40;2.42;;;;;;;;;;4995702;28;20049;-63
2023/08/12 13:46:43;;;;;;;4.22;1.70;;;;;;;;;;4993220;28;20122;-63
2023/08/12 13:49:09;;;;;;;3.80;2.08;;;;;;;;;;4993849;28;20034;-63
2023/08/12 13:51:35;;;;;;;4.75;2.35;;;;;;;;;;4970122;28;20215;-63
2023/08/12 13:54:01;;;;;;;6.57;2.05;;;;;;;;;;4993200;28;20038;-63
2023/08/12 13:56:27;;;;;;;6.43;2.95;;;;;;;;;;4991764;28;20450;-63
2023/08/12 13:58:53;;;;;;;4.05;2.40;;;;;;;;;;4988941;28;20050;-63
2023/08/12 14:01:21;;;;;;;8.35;3.30;;;;;;;;;;4987790;28;20136;-64
2023/08/12 14:03:47;;;;;;;7.10;2.53;;;;;;;;;;4995211;28;20362;-63
2023/08/12 14:06:13;;;;;;;5.60;3.00;;;;;;;;;;4989417;28;20061;-64
2023/08/12 14:08:39;;;;;;;8.30;2.53;;;;;;;;;;4987461;28;20381;-63
2023/08/12 14:11:06;;;;;;;7.00;2.80;;;;;;;;;;4987293;28;20104;-63
2023/08/12 14:13:32;;;;;;;4.55;2.15;;;;;;;;;;4970436;28;20049;-63
2023/08/12 14:15:58;;;;;;;5.78;3.03;;;;;;;;;;4985579;28;20058;-63
2023/08/12 14:18:24;;;;;;;7.10;3.38;;;;;;;;;;4985804;28;20054;-63
2023/08/12 14:20:51;;;;;;;7.90;2.75;;;;;;;;;;4987283;28;20042;-63
2023/08/12 14:23:17;;;;;;;9.88;2.92;;;;;;;;;;4988237;28;20393;-63
2023/08/12 14:25:43;;;;;;;6.05;2.53;;;;;;;;;;4986832;28;20133;-63
2023/08/12 14:28:12;;;;;;;5.63;2.80;;;;;;;;;;4968371;28;20651;-63
2023/08/12 14:30:41;;;;;;;7.38;2.85;;;;;;;;;;4988788;28;20045;-63
2023/08/12 14:33:07;;;;;;;7.05;2.40;;;;;;;;;;4993479;28;20042;-63
2023/08/12 14:35:36;;;;;;;10.82;3.67;;;;;;;;;;4969072;28;20116;-64
2023/08/12 14:38:03;;;;;;;7.75;2.92;;;;;;;;;;4991634;28;20129;-63